createdAt,value
2023-04-27T00:01:20.955Z,13.25
2023-04-27T00:03:47.828Z,12.48
2023-04-27T00:06:14.704Z,12.03
2023-04-27T00:08:42.117Z,13.57
2023-04-27T00:11:08.898Z,13.43
2023-04-27T00:13:35.625Z,12.60
2023-04-27T00:16:03.863Z,13.23
2023-04-27T00:18:32.120Z,11.33
2023-04-27T00:20:59.429Z,14.30
2023-04-27T00:23:26.375Z,16.48
2023-04-27T00:25:53.150Z,19.58
2023-04-27T00:28:19.859Z,15.65
2023-04-27T00:30:46.711Z,15.45
2023-04-27T00:33:13.417Z,17.90
2023-04-27T00:35:40.820Z,17.30
2023-04-27T00:38:07.596Z,19.90
2023-04-27T00:40:34.366Z,15.57
2023-04-27T00:43:01.073Z,15.30
2023-04-27T00:45:27.988Z,12.93
2023-04-27T00:47:55.789Z,9.82
2023-04-27T00:50:29.343Z,12.35
2023-04-27T00:52:56.605Z,11.57
2023-04-27T00:55:26.558Z,13.43
2023-04-27T00:57:53.316Z,20.05
2023-04-27T01:00:20.204Z,14.13
2023-04-27T01:02:49.204Z,13.82
2023-04-27T01:05:18.069Z,15.10
2023-04-27T01:07:46.499Z,12.70
2023-04-27T01:10:13.279Z,15.48
2023-04-27T01:12:40.009Z,14.23
2023-04-27T01:15:07.566Z,14.03
2023-04-27T01:17:34.451Z,12.93
2023-04-27T01:20:02.454Z,12.25
2023-04-27T01:22:29.223Z,15.93
2023-04-27T01:24:56.012Z,11.90
2023-04-27T01:27:23.797Z,11.55
2023-04-27T01:29:50.502Z,13.90
2023-04-27T01:32:17.243Z,15.75
2023-04-27T01:34:43.974Z,13.30
2023-04-27T01:37:11.057Z,10.73
2023-04-27T01:39:38.034Z,15.52
2023-04-27T01:42:04.961Z,13.90
2023-04-27T01:44:31.802Z,13.43
2023-04-27T01:46:58.703Z,13.87
2023-04-27T01:49:25.498Z,12.68
2023-04-27T01:51:52.408Z,14.65
2023-04-27T01:54:19.103Z,13.30
2023-04-27T01:56:46.019Z,13.90
2023-04-27T01:59:12.881Z,13.18
2023-04-27T02:01:41.052Z,15.43
2023-04-27T02:04:08.091Z,11.80
2023-04-27T02:06:35.625Z,10.05
2023-04-27T02:09:02.386Z,11.07
2023-04-27T02:11:29.584Z,10.27
2023-04-27T02:13:56.296Z,11.20
2023-04-27T02:16:30.857Z,10.15
2023-04-27T02:18:58.870Z,11.77
2023-04-27T02:21:25.639Z,12.80
2023-04-27T02:23:52.404Z,12.67
2023-04-27T02:26:20.444Z,9.85
2023-04-27T02:28:50.151Z,12.63
2023-04-27T02:31:17.385Z,9.57
2023-04-27T02:33:45.639Z,12.37
2023-04-27T02:36:12.380Z,12.52
2023-04-27T02:38:39.078Z,9.55
2023-04-27T02:41:05.772Z,9.75
2023-04-27T02:43:34.038Z,9.73
2023-04-27T02:46:04.394Z,10.00
2023-04-27T02:48:31.496Z,13.70
2023-04-27T02:50:58.256Z,10.80
2023-04-27T02:53:25.068Z,12.87
2023-04-27T02:55:51.805Z,10.30
2023-04-27T02:58:18.534Z,9.65
2023-04-27T03:00:45.452Z,10.20
2023-04-27T03:03:12.648Z,10.87
2023-04-27T03:05:39.542Z,10.95
2023-04-27T03:08:06.621Z,11.20
2023-04-27T03:10:33.452Z,13.20
2023-04-27T03:13:00.223Z,11.47
2023-04-27T03:15:28.302Z,9.82
2023-04-27T03:17:55.626Z,13.10
2023-04-27T03:20:22.545Z,12.35
2023-04-27T03:22:49.298Z,10.77
2023-04-27T03:25:16.290Z,12.00
2023-04-27T03:27:43.530Z,11.63
2023-04-27T03:30:12.181Z,15.35
2023-04-27T03:32:39.096Z,11.98
2023-04-27T03:35:06.388Z,9.60
2023-04-27T03:37:34.174Z,11.27
2023-04-27T03:40:01.202Z,9.87
2023-04-27T03:42:29.553Z,14.75
2023-04-27T03:44:56.389Z,11.88
2023-04-27T03:47:23.317Z,11.93
2023-04-27T03:49:50.302Z,10.30
2023-04-27T03:52:17.106Z,11.32
2023-04-27T03:54:43.898Z,9.43
2023-04-27T03:57:11.743Z,9.00
2023-04-27T03:59:38.674Z,9.80
2023-04-27T04:02:05.691Z,9.15
2023-04-27T04:04:32.845Z,9.38
2023-04-27T04:06:59.705Z,8.27
2023-04-27T04:09:26.517Z,9.60
2023-04-27T04:11:54.069Z,10.27
2023-04-27T04:14:20.878Z,10.63
2023-04-27T04:16:47.571Z,7.63
2023-04-27T04:19:14.753Z,9.48
2023-04-27T04:21:41.824Z,9.50
2023-04-27T04:24:10.139Z,11.82
2023-04-27T04:26:38.584Z,14.97
2023-04-27T04:29:05.410Z,10.68
2023-04-27T04:31:33.725Z,10.57
2023-04-27T04:34:01.960Z,8.75
2023-04-27T04:36:28.885Z,10.60
2023-04-27T04:38:57.228Z,10.98
2023-04-27T04:41:25.557Z,9.65
2023-04-27T04:43:52.343Z,10.02
2023-04-27T04:46:20.113Z,9.50
2023-04-27T04:48:47.105Z,10.18
2023-04-27T04:51:14.136Z,12.38
2023-04-27T04:53:40.876Z,10.17
2023-04-27T04:56:11.674Z,11.63
2023-04-27T04:58:38.769Z,10.60
2023-04-27T05:01:06.748Z,13.95
2023-04-27T05:03:33.919Z,12.97
2023-04-27T05:06:00.849Z,9.30
2023-04-27T05:08:27.614Z,8.63
2023-04-27T05:10:54.896Z,8.70
2023-04-27T05:13:22.415Z,10.63
2023-04-27T05:15:49.177Z,12.43
2023-04-27T05:18:16.008Z,12.95
2023-04-27T05:20:42.839Z,11.03
2023-04-27T05:23:09.672Z,14.10
2023-04-27T05:25:41.498Z,11.23
2023-04-27T05:28:09.399Z,9.20
2023-04-27T05:30:36.702Z,11.50
2023-04-27T05:33:04.301Z,10.20
2023-04-27T05:35:31.800Z,12.75
2023-04-27T05:37:58.519Z,9.98
2023-04-27T05:40:25.718Z,8.83
2023-04-27T05:42:52.447Z,11.13
2023-04-27T05:45:19.555Z,12.05
2023-04-27T05:47:46.313Z,9.20
2023-04-27T05:50:13.204Z,9.48
2023-04-27T05:52:40.041Z,12.35
2023-04-27T05:55:08.144Z,11.43
2023-04-27T05:57:34.918Z,16.80
2023-04-27T06:00:02.000Z,17.98
2023-04-27T06:02:39.413Z,13.13
2023-04-27T06:05:06.993Z,13.20
2023-04-27T06:07:33.942Z,11.03
2023-04-27T06:10:00.802Z,10.18
2023-04-27T06:12:27.686Z,12.32
2023-04-27T06:14:54.418Z,14.75
2023-04-27T06:17:22.288Z,12.32
2023-04-27T06:19:50.134Z,9.83
2023-04-27T06:22:16.863Z,11.35
2023-04-27T06:24:43.608Z,10.93
2023-04-27T06:27:10.455Z,12.60
2023-04-27T06:29:37.178Z,15.40
2023-04-27T06:32:06.767Z,15.40
2023-04-27T06:34:34.618Z,9.27
2023-04-27T06:37:02.403Z,12.98
2023-04-27T06:39:29.670Z,7.93
2023-04-27T06:41:56.372Z,17.90
2023-04-27T06:44:25.233Z,12.68
2023-04-27T06:46:51.960Z,11.50
2023-04-27T06:49:18.679Z,15.40
2023-04-27T06:51:46.691Z,14.80
2023-04-27T06:54:13.474Z,12.80
2023-04-27T06:56:40.402Z,18.52
2023-04-27T06:59:08.212Z,13.73
2023-04-27T07:01:35.170Z,9.00
2023-04-27T07:04:03.527Z,11.70
2023-04-27T07:06:31.196Z,10.73
2023-04-27T07:08:58.176Z,13.88
2023-04-27T07:11:25.002Z,14.45
2023-04-27T07:13:51.719Z,11.18
2023-04-27T07:16:19.654Z,11.63
2023-04-27T07:18:46.354Z,9.88
2023-04-27T07:21:13.085Z,11.10
2023-04-27T07:23:43.258Z,11.18
2023-04-27T07:26:10.112Z,13.05
2023-04-27T07:28:36.776Z,8.90
2023-04-27T07:31:06.758Z,9.32
2023-04-27T07:33:34.153Z,6.95
2023-04-27T07:36:02.593Z,7.15
2023-04-27T07:38:31.243Z,9.45
2023-04-27T07:41:01.921Z,7.30
2023-04-27T07:43:29.646Z,10.27
2023-04-27T07:45:58.246Z,8.27
2023-04-27T07:48:25.489Z,11.20
2023-04-27T07:50:52.574Z,12.48
2023-04-27T07:53:19.361Z,8.40
2023-04-27T07:55:46.372Z,8.52
2023-04-27T07:58:13.353Z,7.28
2023-04-27T08:00:40.075Z,7.82
2023-04-27T08:03:08.069Z,11.30
2023-04-27T08:05:35.596Z,9.30
2023-04-27T08:08:02.951Z,5.15
2023-04-27T08:10:29.720Z,6.38
2023-04-27T08:12:56.459Z,8.48
2023-04-27T08:15:23.176Z,9.30
2023-04-27T08:17:49.995Z,6.63
2023-04-27T08:20:16.852Z,4.50
2023-04-27T08:22:44.145Z,4.75
2023-04-27T08:25:10.877Z,7.68
2023-04-27T08:27:38.908Z,6.82
2023-04-27T08:30:06.786Z,6.83
2023-04-27T08:32:33.582Z,5.30
2023-04-27T08:35:00.373Z,9.88
2023-04-27T08:37:27.142Z,5.85
2023-04-27T08:39:54.000Z,6.18
2023-04-27T08:42:21.602Z,7.63
2023-04-27T08:44:48.385Z,7.25
2023-04-27T08:47:15.247Z,6.43
2023-04-27T08:49:42.822Z,6.10
2023-04-27T08:52:16.329Z,4.10
2023-04-27T08:54:43.632Z,4.37
2023-04-27T08:57:14.397Z,8.60
2023-04-27T08:59:41.623Z,5.00
2023-04-27T09:02:21.668Z,8.15
2023-04-27T09:04:48.612Z,4.03
2023-04-27T09:07:17.429Z,5.23
2023-04-27T09:09:45.334Z,5.78
2023-04-27T09:12:16.456Z,5.82
2023-04-27T09:14:43.883Z,5.32
2023-04-27T09:17:10.958Z,5.25
2023-04-27T09:19:38.036Z,6.70
2023-04-27T09:22:10.864Z,6.68
2023-04-27T09:24:38.079Z,8.70
2023-04-27T09:27:06.489Z,5.85
2023-04-27T09:29:38.380Z,7.50
2023-04-27T09:32:19.036Z,6.70
2023-04-27T09:34:46.074Z,6.32
2023-04-27T09:37:14.535Z,5.63
2023-04-27T09:39:42.358Z,8.20
2023-04-27T09:42:09.685Z,6.85
2023-04-27T09:44:36.494Z,6.87
2023-04-27T09:47:03.287Z,6.38
2023-04-27T09:49:30.185Z,8.05
2023-04-27T09:51:58.733Z,7.63
2023-04-27T09:54:29.780Z,11.10
2023-04-27T09:57:26.269Z,6.47
2023-04-27T10:00:28.353Z,9.38
2023-04-27T10:03:16.755Z,7.20
2023-04-27T10:06:20.342Z,6.43
2023-04-27T10:08:47.346Z,7.53
2023-04-27T10:11:20.852Z,6.40
2023-04-27T10:13:55.288Z,4.93
2023-04-27T10:16:22.527Z,6.57
2023-04-27T10:18:55.059Z,7.43
2023-04-27T10:21:23.589Z,7.47
2023-04-27T10:23:52.328Z,6.90
2023-04-27T10:26:23.169Z,6.00
2023-04-27T10:29:10.091Z,7.00
2023-04-27T10:31:44.227Z,5.75
2023-04-27T10:34:15.721Z,8.40
2023-04-27T10:36:42.626Z,7.43
2023-04-27T10:39:25.624Z,5.95
2023-04-27T10:41:59.732Z,6.70
2023-04-27T10:44:29.149Z,7.03
2023-04-27T10:46:59.798Z,5.82
2023-04-27T10:49:30.581Z,9.53
2023-04-27T10:51:59.347Z,9.65
2023-04-27T10:54:28.751Z,8.63
2023-04-27T10:57:06.339Z,6.15
2023-04-27T10:59:34.310Z,10.07
2023-04-27T11:02:01.497Z,8.43
2023-04-27T11:04:39.309Z,6.57
2023-04-27T11:07:10.319Z,6.60
2023-04-27T11:09:38.547Z,6.30
2023-04-27T11:12:12.416Z,5.35
2023-04-27T11:14:39.194Z,5.83
2023-04-27T11:17:06.310Z,7.13
2023-04-27T11:19:33.233Z,7.05
2023-04-27T11:22:06.590Z,6.15
2023-04-27T11:24:33.730Z,8.82
2023-04-27T11:27:00.418Z,7.53
2023-04-27T11:29:38.489Z,7.35
2023-04-27T11:32:05.939Z,7.20
2023-04-27T11:34:37.007Z,8.15
2023-04-27T11:39:38.569Z,6.53
2023-04-27T11:42:22.239Z,7.28
2023-04-27T11:45:10.518Z,7.00
2023-04-27T11:47:37.935Z,6.00
2023-04-27T11:50:08.332Z,5.68
2023-04-27T11:52:36.444Z,10.03
2023-04-27T11:55:04.603Z,6.13
2023-04-27T11:57:33.577Z,7.95
2023-04-27T12:00:02.492Z,6.32
2023-04-27T12:02:41.045Z,8.27
2023-04-27T12:05:09.562Z,8.90
2023-04-27T12:07:36.792Z,6.65
2023-04-27T12:10:04.562Z,7.40
2023-04-27T12:12:31.272Z,5.88
2023-04-27T12:14:58.766Z,7.72
2023-04-27T12:17:25.664Z,10.90
2023-04-27T12:19:52.626Z,12.60
2023-04-27T12:22:19.749Z,8.13
2023-04-27T12:24:46.468Z,8.13
2023-04-27T12:27:13.177Z,9.05
2023-04-27T12:29:39.987Z,9.67
2023-04-27T12:32:06.718Z,6.65
2023-04-27T12:34:33.646Z,8.63
2023-04-27T12:37:00.977Z,8.20
2023-04-27T12:39:27.754Z,8.43
2023-04-27T12:41:54.793Z,10.67
2023-04-27T12:44:21.808Z,11.13
2023-04-27T12:46:48.796Z,8.45
2023-04-27T12:49:16.221Z,9.00
2023-04-27T12:51:43.045Z,8.57
2023-04-27T12:54:11.130Z,5.93
2023-04-27T12:56:38.228Z,6.47
2023-04-27T12:59:06.240Z,8.15
2023-04-27T13:01:33.237Z,7.63
2023-04-27T13:04:02.198Z,5.93
2023-04-27T13:06:31.138Z,7.00
2023-04-27T13:08:58.628Z,6.13
2023-04-27T13:11:26.151Z,7.68
2023-04-27T13:13:52.957Z,7.60
2023-04-27T13:16:21.738Z,7.97
2023-04-27T13:18:50.539Z,8.73
2023-04-27T13:21:17.319Z,6.97
2023-04-27T13:23:44.073Z,10.40
2023-04-27T13:26:11.416Z,8.20
2023-04-27T13:28:38.122Z,11.13
2023-04-27T13:31:05.378Z,6.77
2023-04-27T13:33:39.958Z,7.28
2023-04-27T13:36:07.197Z,8.55
2023-04-27T13:38:33.948Z,8.55
2023-04-27T13:41:00.780Z,6.00
2023-04-27T13:43:27.628Z,9.93
2023-04-27T13:45:55.748Z,6.60
2023-04-27T13:48:22.729Z,6.65
2023-04-27T13:50:49.602Z,9.00
2023-04-27T13:53:16.778Z,6.68
2023-04-27T13:55:44.368Z,6.43
2023-04-27T13:58:13.160Z,6.53
2023-04-27T14:00:39.989Z,8.98
2023-04-27T14:03:08.751Z,7.50
2023-04-27T14:05:35.798Z,9.57
2023-04-27T14:08:02.555Z,6.20
2023-04-27T14:10:30.340Z,6.80
2023-04-27T14:12:57.258Z,5.75
2023-04-27T14:15:24.092Z,6.82
2023-04-27T14:17:51.047Z,4.60
2023-04-27T14:20:17.895Z,6.30
2023-04-27T14:22:44.661Z,4.78
2023-04-27T14:25:11.432Z,5.85
2023-04-27T14:27:38.106Z,7.05
2023-04-27T14:30:05.456Z,6.47
2023-04-27T14:32:32.310Z,5.87
2023-04-27T14:34:59.088Z,5.22
2023-04-27T14:37:26.028Z,7.10
2023-04-27T14:39:52.774Z,8.77
2023-04-27T14:42:19.447Z,7.47
2023-04-27T14:44:47.607Z,5.30
2023-04-27T14:47:15.494Z,7.45
2023-04-27T14:49:42.320Z,8.20
2023-04-27T14:52:09.252Z,6.80
2023-04-27T14:54:38.348Z,6.90
2023-04-27T14:57:05.114Z,6.20
2023-04-27T14:59:34.045Z,5.18
2023-04-27T15:02:01.072Z,7.63
2023-04-27T15:04:28.230Z,5.80
2023-04-27T15:06:55.327Z,5.65
2023-04-27T15:09:22.056Z,6.77
2023-04-27T15:11:48.778Z,8.45
2023-04-27T15:14:15.528Z,5.10
2023-04-27T15:16:42.190Z,7.30
2023-04-27T15:19:08.949Z,5.07
2023-04-27T15:21:35.753Z,5.07
2023-04-27T15:24:02.419Z,4.85
2023-04-27T15:26:29.113Z,4.88
2023-04-27T15:28:58.075Z,4.80
2023-04-27T15:31:25.037Z,4.93
2023-04-27T15:33:53.715Z,3.90
2023-04-27T15:36:22.914Z,6.40
2023-04-27T15:38:51.776Z,6.75
2023-04-27T15:41:19.024Z,6.32
2023-04-27T15:43:45.933Z,7.57
2023-04-27T15:46:12.894Z,6.87
2023-04-27T15:48:39.589Z,5.88
2023-04-27T15:51:09.545Z,4.82
2023-04-27T15:53:37.215Z,7.95
2023-04-27T15:56:04.125Z,3.90
2023-04-27T15:58:30.831Z,3.50
2023-04-27T16:00:59.943Z,4.97
2023-04-27T16:03:26.845Z,5.53
2023-04-27T16:05:53.785Z,4.45
2023-04-27T16:08:20.625Z,5.28
2023-04-27T16:10:47.442Z,5.63
2023-04-27T16:13:14.129Z,6.65
2023-04-27T16:15:40.902Z,4.60
2023-04-27T16:18:07.823Z,5.00
2023-04-27T16:20:36.522Z,6.10
2023-04-27T16:23:03.631Z,8.53
2023-04-27T16:25:30.380Z,5.15
2023-04-27T16:27:58.825Z,3.90
2023-04-27T16:30:25.763Z,5.60
2023-04-27T16:32:53.032Z,5.30
2023-04-27T16:35:19.862Z,6.60
2023-04-27T16:37:46.586Z,6.65
2023-04-27T16:40:13.488Z,4.70
2023-04-27T16:42:40.713Z,7.88
2023-04-27T16:45:10.556Z,7.10
2023-04-27T16:47:38.081Z,4.80
2023-04-27T16:50:05.145Z,5.30
2023-04-27T16:52:31.888Z,6.78
2023-04-27T16:54:58.669Z,5.32
2023-04-27T16:57:25.872Z,7.40
2023-04-27T16:59:52.632Z,5.63
2023-04-27T17:02:25.189Z,5.90
2023-04-27T17:04:54.106Z,7.28
2023-04-27T17:07:21.273Z,7.03
2023-04-27T17:09:48.059Z,6.03
2023-04-27T17:12:16.640Z,6.23
2023-04-27T17:14:43.374Z,6.38
2023-04-27T17:17:10.508Z,7.45
2023-04-27T17:19:37.263Z,6.05
2023-04-27T17:22:04.451Z,9.18
2023-04-27T17:24:31.298Z,7.50
2023-04-27T17:26:57.978Z,6.50
2023-04-27T17:29:24.763Z,5.10
2023-04-27T17:31:51.602Z,6.88
2023-04-27T17:34:18.348Z,7.20
2023-04-27T17:36:46.120Z,7.60
2023-04-27T17:39:13.808Z,6.60
2023-04-27T17:41:41.192Z,4.40
2023-04-27T17:44:08.062Z,7.05
2023-04-27T17:46:34.981Z,7.97
2023-04-27T17:49:01.723Z,6.63
2023-04-27T17:51:28.465Z,7.18
2023-04-27T17:53:55.475Z,7.90
2023-04-27T17:56:22.479Z,6.20
2023-04-27T17:58:49.190Z,5.40
2023-04-27T18:01:16.188Z,6.53
2023-04-27T18:03:43.168Z,6.53
2023-04-27T18:06:10.031Z,8.60
2023-04-27T18:08:36.794Z,7.40
2023-04-27T18:11:03.869Z,8.80
2023-04-27T18:13:32.444Z,6.37
2023-04-27T18:15:59.626Z,6.38
2023-04-27T18:18:26.833Z,6.10
2023-04-27T18:20:53.588Z,9.20
2023-04-27T18:23:20.642Z,7.93
2023-04-27T18:25:47.406Z,7.73
2023-04-27T18:28:14.148Z,6.00
2023-04-27T18:30:41.307Z,7.22
2023-04-27T18:33:08.270Z,8.32
2023-04-27T18:35:35.259Z,7.85
2023-04-27T18:38:03.468Z,6.97
2023-04-27T18:40:31.528Z,9.43
2023-04-27T18:42:58.224Z,10.63
2023-04-27T18:45:24.877Z,7.57
2023-04-27T18:47:51.661Z,8.82
2023-04-27T18:50:19.143Z,9.80
2023-04-27T18:52:46.685Z,8.70
2023-04-27T18:55:17.680Z,9.27
2023-04-27T18:57:45.018Z,7.07
2023-04-27T19:00:12.986Z,8.48
2023-04-27T19:02:40.238Z,9.23
2023-04-27T19:05:13.017Z,7.57
2023-04-27T19:07:40.675Z,8.38
2023-04-27T19:10:08.031Z,7.75
2023-04-27T19:12:35.005Z,9.63
2023-04-27T19:15:01.766Z,9.37
2023-04-27T19:17:28.821Z,8.98
2023-04-27T19:19:55.961Z,10.43
2023-04-27T19:22:22.798Z,9.05
2023-04-27T19:24:49.515Z,8.05
2023-04-27T19:27:16.314Z,11.80
2023-04-27T19:29:53.480Z,8.85
2023-04-27T19:32:21.336Z,14.10
2023-04-27T19:34:48.695Z,8.82
2023-04-27T19:37:15.838Z,8.15
2023-04-27T19:39:42.683Z,8.83
2023-04-27T19:42:09.530Z,10.90
2023-04-27T19:44:36.423Z,8.23
2023-04-27T19:47:03.139Z,10.15
2023-04-27T19:49:33.548Z,8.75
2023-04-27T19:52:00.697Z,9.07
2023-04-27T19:54:27.575Z,7.47
2023-04-27T19:56:54.915Z,11.70
2023-04-27T19:59:21.993Z,8.32
2023-04-27T20:01:49.071Z,9.30
2023-04-27T20:04:17.970Z,9.20
2023-04-27T20:06:46.248Z,7.55
2023-04-27T20:09:12.964Z,8.63
2023-04-27T20:11:39.883Z,7.32
2023-04-27T20:14:06.603Z,8.48
2023-04-27T20:16:33.436Z,7.17
2023-04-27T20:19:00.151Z,7.65
2023-04-27T20:21:27.942Z,9.00
2023-04-27T20:23:54.694Z,10.50
2023-04-27T20:26:22.406Z,8.60
2023-04-27T20:28:49.151Z,6.67
2023-04-27T20:31:16.040Z,8.35
2023-04-27T20:33:42.855Z,12.65
2023-04-27T20:36:17.050Z,8.20
2023-04-27T20:38:45.336Z,8.65
2023-04-27T20:41:12.360Z,10.13
2023-04-27T20:43:39.883Z,9.73
2023-04-27T20:46:13.405Z,9.52
2023-04-27T20:48:40.190Z,8.82
2023-04-27T20:51:06.930Z,7.72
2023-04-27T20:53:33.837Z,8.30
2023-04-27T20:56:00.639Z,8.38
2023-04-27T20:58:27.345Z,6.35
2023-04-27T21:00:54.189Z,9.18
2023-04-27T21:03:21.292Z,8.15
2023-04-27T21:05:49.121Z,9.27
2023-04-27T21:08:16.879Z,8.00
2023-04-27T21:10:44.231Z,8.75
2023-04-27T21:13:11.171Z,10.50
2023-04-27T21:15:38.656Z,8.30
2023-04-27T21:18:07.906Z,8.33
2023-04-27T21:20:36.288Z,11.20
2023-04-27T21:23:03.454Z,9.70
2023-04-27T21:25:30.181Z,11.35
2023-04-27T21:27:56.870Z,10.20
2023-04-27T21:30:23.762Z,7.70
2023-04-27T21:32:50.669Z,8.65
2023-04-27T21:35:17.550Z,9.35
2023-04-27T21:37:44.277Z,10.98
2023-04-27T21:40:11.441Z,8.05
2023-04-27T21:42:38.130Z,8.43
2023-04-27T21:45:05.251Z,8.95
2023-04-27T21:47:32.012Z,9.43
2023-04-27T21:49:58.710Z,8.43
2023-04-27T21:52:25.571Z,8.27
2023-04-27T21:54:52.276Z,7.67
2023-04-27T21:57:20.154Z,8.18
2023-04-27T21:59:47.011Z,10.50
2023-04-27T22:02:13.718Z,7.68
2023-04-27T22:04:40.610Z,10.77
2023-04-27T22:07:10.336Z,8.83
2023-04-27T22:09:37.065Z,9.80
2023-04-27T22:12:04.478Z,7.82
2023-04-27T22:14:31.509Z,7.75
2023-04-27T22:17:00.529Z,8.10
2023-04-27T22:19:27.958Z,8.63
2023-04-27T22:21:55.147Z,7.28
2023-04-27T22:24:22.214Z,7.80
2023-04-27T22:26:49.005Z,8.85
2023-04-27T22:29:16.203Z,10.30
2023-04-27T22:31:43.871Z,7.57
2023-04-27T22:34:12.907Z,9.95
2023-04-27T22:36:39.924Z,8.05
2023-04-27T22:39:07.136Z,9.80
2023-04-27T22:41:34.019Z,7.95
2023-04-27T22:44:00.896Z,9.87
2023-04-27T22:46:27.758Z,8.93
2023-04-27T22:48:54.583Z,7.97
2023-04-27T22:51:21.623Z,9.30
2023-04-27T22:53:48.864Z,10.68
2023-04-27T22:56:15.561Z,9.03
2023-04-27T22:58:42.230Z,9.70
2023-04-27T23:01:09.002Z,12.32
2023-04-27T23:03:35.962Z,11.82
2023-04-27T23:06:03.026Z,9.02
2023-04-27T23:08:29.907Z,8.93
2023-04-27T23:10:56.880Z,7.45
2023-04-27T23:13:29.682Z,11.27
2023-04-27T23:15:56.719Z,7.50
2023-04-27T23:18:23.483Z,9.13
2023-04-27T23:20:54.778Z,6.67
2023-04-27T23:23:22.007Z,9.10
2023-04-27T23:25:48.887Z,9.82
2023-04-27T23:28:15.705Z,8.35
2023-04-27T23:30:42.395Z,8.00
2023-04-27T23:33:09.164Z,9.13
2023-04-27T23:35:35.854Z,8.02
2023-04-27T23:38:02.635Z,10.30
2023-04-27T23:40:29.329Z,8.75
2023-04-27T23:42:56.191Z,9.82
2023-04-27T23:45:22.930Z,8.83
2023-04-27T23:47:49.770Z,10.10
2023-04-27T23:50:16.649Z,7.15
2023-04-27T23:52:43.368Z,11.63
2023-04-27T23:55:10.315Z,6.88
2023-04-27T23:57:37.151Z,6.73
